sensor_id;sensor_type;location;lat;lon;timestamp;pressure;altitude;pressure_sealevel;temperature;humidity
72116;BME280;59991;52.140;5.428;2023-04-20T00:00:20;102458.38;;;6.78;45.36
72116;BME280;59991;52.140;5.428;2023-04-20T00:00:52;102461.09;;;6.78;45.94
72116;BME280;59991;52.140;5.428;2023-04-20T00:01:23;102459.19;;;6.79;45.62
72116;BME280;59991;52.140;5.428;2023-04-20T00:01:55;102460.00;;;6.79;45.76
72116;BME280;59991;52.140;5.428;2023-04-20T00:02:29;102458.88;;;6.80;45.71
72116;BME280;59991;52.140;5.428;2023-04-20T00:03:00;102448.34;;;6.79;46.01
72116;BME280;59991;52.140;5.428;2023-04-20T00:03:32;102457.28;;;6.79;46.57
72116;BME280;59991;52.140;5.428;2023-04-20T00:04:05;102456.47;;;6.79;46.09
72116;BME280;59991;52.140;5.428;2023-04-20T00:04:37;102452.97;;;6.78;46.14
72116;BME280;59991;52.140;5.428;2023-04-20T00:05:09;102450.56;;;6.77;46.45
72116;BME280;59991;52.140;5.428;2023-04-20T00:05:42;102452.47;;;6.76;46.56
72116;BME280;59991;52.140;5.428;2023-04-20T00:06:15;102456.28;;;6.75;46.62
72116;BME280;59991;52.140;5.428;2023-04-20T00:06:47;102445.75;;;6.74;46.64
72116;BME280;59991;52.140;5.428;2023-04-20T00:07:19;102457.41;;;6.74;46.43
72116;BME280;59991;52.140;5.428;2023-04-20T00:07:51;102448.81;;;6.72;46.84
72116;BME280;59991;52.140;5.428;2023-04-20T00:08:24;102455.03;;;6.73;46.75
72116;BME280;59991;52.140;5.428;2023-04-20T00:08:56;102440.69;;;6.72;46.57
72116;BME280;59991;52.140;5.428;2023-04-20T00:09:27;102452.31;;;6.73;46.94
72116;BME280;59991;52.140;5.428;2023-04-20T00:09:59;102447.22;;;6.71;46.70
72116;BME280;59991;52.140;5.428;2023-04-20T00:10:30;102445.59;;;6.70;46.68
72116;BME280;59991;52.140;5.428;2023-04-20T00:11:02;102443.50;;;6.67;47.18
72116;BME280;59991;52.140;5.428;2023-04-20T00:11:34;102444.13;;;6.64;46.70
72116;BME280;59991;52.140;5.428;2023-04-20T00:12:05;102443.63;;;6.62;47.03
72116;BME280;59991;52.140;5.428;2023-04-20T00:12:37;102444.75;;;6.61;46.87
72116;BME280;59991;52.140;5.428;2023-04-20T00:13:08;102439.94;;;6.58;46.80
72116;BME280;59991;52.140;5.428;2023-04-20T00:13:40;102436.44;;;6.57;47.04
72116;BME280;59991;52.140;5.428;2023-04-20T00:14:11;102438.66;;;6.55;46.97
72116;BME280;59991;52.140;5.428;2023-04-20T00:14:43;102443.28;;;6.55;47.55
72116;BME280;59991;52.140;5.428;2023-04-20T00:15:14;102434.69;;;6.53;47.54
72116;BME280;59991;52.140;5.428;2023-04-20T00:15:46;102437.38;;;6.53;48.39
72116;BME280;59991;52.140;5.428;2023-04-20T00:16:17;102436.59;;;6.52;48.48
72116;BME280;59991;52.140;5.428;2023-04-20T00:16:49;102438.50;;;6.52;47.97
72116;BME280;59991;52.140;5.428;2023-04-20T00:17:20;102439.59;;;6.51;47.65
72116;BME280;59991;52.140;5.428;2023-04-20T00:17:52;102438.81;;;6.50;47.76
72116;BME280;59991;52.140;5.428;2023-04-20T00:18:24;102430.66;;;6.50;47.64
72116;BME280;59991;52.140;5.428;2023-04-20T00:18:56;102428.75;;;6.51;47.92
72116;BME280;59991;52.140;5.428;2023-04-20T00:19:27;102433.38;;;6.50;47.90
72116;BME280;59991;52.140;5.428;2023-04-20T00:20:03;102427.16;;;6.50;47.81
72116;BME280;59991;52.140;5.428;2023-04-20T00:20:36;102435.28;;;6.50;48.01
72116;BME280;59991;52.140;5.428;2023-04-20T00:21:07;102418.53;;;6.48;48.64
72116;BME280;59991;52.140;5.428;2023-04-20T00:21:39;102425.56;;;6.49;48.14
72116;BME280;59991;52.140;5.428;2023-04-20T00:22:11;102428.28;;;6.49;47.86
72116;BME280;59991;52.140;5.428;2023-04-20T00:22:43;102415.84;;;6.48;47.98
72116;BME280;59991;52.140;5.428;2023-04-20T00:23:14;102423.97;;;6.48;48.23
72116;BME280;59991;52.140;5.428;2023-04-20T00:23:46;102423.97;;;6.48;48.08
72116;BME280;59991;52.140;5.428;2023-04-20T00:24:17;102418.53;;;6.48;48.24
72116;BME280;59991;52.140;5.428;2023-04-20T00:24:49;102423.97;;;6.48;48.71
72116;BME280;59991;52.140;5.428;2023-04-20T00:25:20;102421.56;;;6.46;48.35
72116;BME280;59991;52.140;5.428;2023-04-20T00:25:52;102419.66;;;6.47;48.67
72116;BME280;59991;52.140;5.428;2023-04-20T00:26:24;102424.56;;;6.45;48.95
72116;BME280;59991;52.140;5.428;2023-04-20T00:26:56;102412.94;;;6.44;49.02
72116;BME280;59991;52.140;5.428;2023-04-20T00:27:27;102415.66;;;6.44;49.25
72116;BME280;59991;52.140;5.428;2023-04-20T00:27:59;102414.84;;;6.44;49.27
72116;BME280;59991;52.140;5.428;2023-04-20T00:28:30;102415.94;;;6.43;49.13
72116;BME280;59991;52.140;5.428;2023-04-20T00:29:02;102412.44;;;6.42;49.13
72116;BME280;59991;52.140;5.428;2023-04-20T00:29:33;102413.56;;;6.41;48.94
72116;BME280;59991;52.140;5.428;2023-04-20T00:30:05;102414.16;;;6.38;49.18
72116;BME280;59991;52.140;5.428;2023-04-20T00:30:37;102410.16;;;6.36;49.40
72116;BME280;59991;52.140;5.428;2023-04-20T00:31:09;102411.31;;;6.35;49.78
72116;BME280;59991;52.140;5.428;2023-04-20T00:31:41;102409.22;;;6.32;49.19
72116;BME280;59991;52.140;5.428;2023-04-20T00:32:12;102406.50;;;6.32;49.69
72116;BME280;59991;52.140;5.428;2023-04-20T00:32:43;102403.28;;;6.30;49.71
72116;BME280;59991;52.140;5.428;2023-04-20T00:33:15;102396.28;;;6.29;49.52
72116;BME280;59991;52.140;5.428;2023-04-20T00:33:47;102395.47;;;6.28;49.86
72116;BME280;59991;52.140;5.428;2023-04-20T00:34:19;102398.19;;;6.28;49.65
72116;BME280;59991;52.140;5.428;2023-04-20T00:34:51;102399.28;;;6.27;49.66
72116;BME280;59991;52.140;5.428;2023-04-20T00:35:22;102396.59;;;6.27;49.77
72116;BME280;59991;52.140;5.428;2023-04-20T00:35:54;102391.97;;;6.28;50.01
72116;BME280;59991;52.140;5.428;2023-04-20T00:36:26;102391.16;;;6.27;50.22
72116;BME280;59991;52.140;5.428;2023-04-20T00:36:58;102393.06;;;6.27;50.14
72116;BME280;59991;52.140;5.428;2023-04-20T00:37:29;102386.06;;;6.26;50.37
72116;BME280;59991;52.140;5.428;2023-04-20T00:38:01;102394.97;;;6.26;49.89
72116;BME280;59991;52.140;5.428;2023-04-20T00:38:32;102390.38;;;6.27;50.48
72116;BME280;59991;52.140;5.428;2023-04-20T00:39:04;102383.34;;;6.26;50.50
72116;BME280;59991;52.140;5.428;2023-04-20T00:39:36;102377.94;;;6.26;50.43
72116;BME280;59991;52.140;5.428;2023-04-20T00:40:07;102381.44;;;6.26;49.97
72116;BME280;59991;52.140;5.428;2023-04-20T00:40:42;102385.25;;;6.25;50.48
72116;BME280;59991;52.140;5.428;2023-04-20T00:41:13;102387.16;;;6.24;50.50
72116;BME280;59991;52.140;5.428;2023-04-20T00:41:45;102381.75;;;6.24;50.68
72116;BME280;59991;52.140;5.428;2023-04-20T00:42:16;102377.44;;;6.23;50.28
72116;BME280;59991;52.140;5.428;2023-04-20T00:42:48;102376.31;;;6.24;50.42
72116;BME280;59991;52.140;5.428;2023-04-20T00:43:20;102373.94;;;6.23;50.55
72116;BME280;59991;52.140;5.428;2023-04-20T00:43:52;102377.44;;;6.23;50.48
72116;BME280;59991;52.140;5.428;2023-04-20T00:44:24;102372.31;;;6.22;50.63
72116;BME280;59991;52.140;5.428;2023-04-20T00:44:56;102375.34;;;6.20;50.63
72116;BME280;59991;52.140;5.428;2023-04-20T00:45:27;102372.13;;;6.18;50.70
72116;BME280;59991;52.140;5.428;2023-04-20T00:45:58;102367.38;;;6.15;51.49
72116;BME280;59991;52.140;5.428;2023-04-20T00:46:30;102369.59;;;6.13;50.95
72116;BME280;59991;52.140;5.428;2023-04-20T00:47:02;102364.97;;;6.14;51.38
72116;BME280;59991;52.140;5.428;2023-04-20T00:47:34;102364.97;;;6.14;51.31
72116;BME280;59991;52.140;5.428;2023-04-20T00:48:06;102363.06;;;6.14;51.57
72116;BME280;59991;52.140;5.428;2023-04-20T00:48:37;102359.56;;;6.14;51.30
72116;BME280;59991;52.140;5.428;2023-04-20T00:49:09;102370.38;;;6.14;51.56
72116;BME280;59991;52.140;5.428;2023-04-20T00:49:41;102362.25;;;6.14;51.37
72116;BME280;59991;52.140;5.428;2023-04-20T00:50:14;102352.53;;;6.13;52.10
72116;BME280;59991;52.140;5.428;2023-04-20T00:50:47;102364.16;;;6.13;52.11
72116;BME280;59991;52.140;5.428;2023-04-20T00:51:20;102352.53;;;6.13;52.30
72116;BME280;59991;52.140;5.428;2023-04-20T00:51:52;102355.25;;;6.13;52.04
72116;BME280;59991;52.140;5.428;2023-04-20T00:52:24;102354.44;;;6.12;51.89
72116;BME280;59991;52.140;5.428;2023-04-20T00:52:56;102352.53;;;6.13;52.46
72116;BME280;59991;52.140;5.428;2023-04-20T00:53:28;102352.03;;;6.11;52.63
72116;BME280;59991;52.140;5.428;2023-04-20T00:54:00;102350.13;;;6.11;52.96
72116;BME280;59991;52.140;5.428;2023-04-20T00:54:32;102343.91;;;6.11;52.89
72116;BME280;59991;52.140;5.428;2023-04-20T00:55:04;102348.22;;;6.12;52.70
72116;BME280;59991;52.140;5.428;2023-04-20T00:55:36;102344.72;;;6.11;52.99
72116;BME280;59991;52.140;5.428;2023-04-20T00:56:08;102349.34;;;6.11;52.96
72116;BME280;59991;52.140;5.428;2023-04-20T00:56:42;102342.00;;;6.11;53.23
72116;BME280;59991;52.140;5.428;2023-04-20T00:57:14;102344.72;;;6.11;53.04
72116;BME280;59991;52.140;5.428;2023-04-20T00:57:48;102343.13;;;6.10;53.24
72116;BME280;59991;52.140;5.428;2023-04-20T00:58:20;102340.41;;;6.10;53.37
72116;BME280;59991;52.140;5.428;2023-04-20T00:58:52;102345.03;;;6.10;53.74
72116;BME280;59991;52.140;5.428;2023-04-20T00:59:23;102338.50;;;6.11;53.61
72116;BME280;59991;52.140;5.428;2023-04-20T00:59:55;102346.13;;;6.09;53.70
72116;BME280;59991;52.140;5.428;2023-04-20T01:00:27;102342.63;;;6.08;53.90
72116;BME280;59991;52.140;5.428;2023-04-20T01:00:58;102337.50;;;6.07;53.62
72116;BME280;59991;52.140;5.428;2023-04-20T01:01:30;102339.13;;;6.08;53.84
72116;BME280;59991;52.140;5.428;2023-04-20T01:02:02;102335.59;;;6.07;54.26
72116;BME280;59991;52.140;5.428;2023-04-20T01:02:34;102334.50;;;6.08;53.94
72116;BME280;59991;52.140;5.428;2023-04-20T01:03:06;102329.88;;;6.09;53.94
72116;BME280;59991;52.140;5.428;2023-04-20T01:03:38;102335.31;;;6.09;54.15
72116;BME280;59991;52.140;5.428;2023-04-20T01:04:10;102327.97;;;6.09;54.40
72116;BME280;59991;52.140;5.428;2023-04-20T01:04:46;102325.25;;;6.09;53.95
72116;BME280;59991;52.140;5.428;2023-04-20T01:05:18;102337.69;;;6.10;54.28
72116;BME280;59991;52.140;5.428;2023-04-20T01:05:49;102325.25;;;6.09;54.77
72116;BME280;59991;52.140;5.428;2023-04-20T01:06:21;102329.09;;;6.08;54.60
72116;BME280;59991;52.140;5.428;2023-04-20T01:06:53;102329.09;;;6.08;54.48
72116;BME280;59991;52.140;5.428;2023-04-20T01:07:24;102317.44;;;6.08;54.56
72116;BME280;59991;52.140;5.428;2023-04-20T01:07:56;102326.06;;;6.10;54.52
72116;BME280;59991;52.140;5.428;2023-04-20T01:08:28;102331.47;;;6.10;54.74
72116;BME280;59991;52.140;5.428;2023-04-20T01:08:59;102322.56;;;6.09;55.00
72116;BME280;59991;52.140;5.428;2023-04-20T01:09:31;102324.97;;;6.11;54.61
72116;BME280;59991;52.140;5.428;2023-04-20T01:10:03;102322.56;;;6.09;54.71
72116;BME280;59991;52.140;5.428;2023-04-20T01:10:35;102326.06;;;6.10;54.50
72116;BME280;59991;52.140;5.428;2023-04-20T01:11:07;102320.66;;;6.10;55.03
72116;BME280;59991;52.140;5.428;2023-04-20T01:11:38;102319.53;;;6.11;54.92
72116;BME280;59991;52.140;5.428;2023-04-20T01:12:10;102320.34;;;6.11;55.02
72116;BME280;59991;52.140;5.428;2023-04-20T01:12:42;102317.63;;;6.11;54.79
72116;BME280;59991;52.140;5.428;2023-04-20T01:13:13;102322.25;;;6.11;55.19
72116;BME280;59991;52.140;5.428;2023-04-20T01:13:45;102320.66;;;6.10;55.03
72116;BME280;59991;52.140;5.428;2023-04-20T01:14:17;102317.13;;;6.09;55.36
72116;BME280;59991;52.140;5.428;2023-04-20T01:14:48;102315.53;;;6.08;55.34
72116;BME280;59991;52.140;5.428;2023-04-20T01:15:20;102315.53;;;6.08;55.18
72116;BME280;59991;52.140;5.428;2023-04-20T01:15:51;102316.66;;;6.07;55.35
72116;BME280;59991;52.140;5.428;2023-04-20T01:16:23;102317.44;;;6.08;54.86
72116;BME280;59991;52.140;5.428;2023-04-20T01:16:54;102315.53;;;6.08;55.39
72116;BME280;59991;52.140;5.428;2023-04-20T01:17:26;102310.94;;;6.09;55.19
72116;BME280;59991;52.140;5.428;2023-04-20T01:17:58;102310.94;;;6.09;55.38
72116;BME280;59991;52.140;5.428;2023-04-20T01:18:43;102311.41;;;6.11;55.27
72116;BME280;59991;52.140;5.428;2023-04-20T01:19:15;102311.72;;;6.09;55.63
72116;BME280;59991;52.140;5.428;2023-04-20T01:19:47;102312.53;;;6.10;55.60
72116;BME280;59991;52.140;5.428;2023-04-20T01:20:19;102307.41;;;6.08;55.84
72116;BME280;59991;52.140;5.428;2023-04-20T01:20:53;102306.63;;;6.08;55.71
72116;BME280;59991;52.140;5.428;2023-04-20T01:21:25;102308.22;;;6.09;55.43
72116;BME280;59991;52.140;5.428;2023-04-20T01:21:57;102308.22;;;6.09;55.74
72116;BME280;59991;52.140;5.428;2023-04-20T01:22:28;102302.81;;;6.09;55.88
72116;BME280;59991;52.140;5.428;2023-04-20T01:23:00;102311.22;;;6.07;55.62
72116;BME280;59991;52.140;5.428;2023-04-20T01:23:33;102305.03;;;6.07;55.74
72116;BME280;59991;52.140;5.428;2023-04-20T01:24:05;102306.63;;;6.08;55.98
72116;BME280;59991;52.140;5.428;2023-04-20T01:24:37;102297.19;;;6.05;56.23
72116;BME280;59991;52.140;5.428;2023-04-20T01:25:08;102301.03;;;6.04;56.27
72116;BME280;59991;52.140;5.428;2023-04-20T01:25:40;102302.94;;;6.04;55.92
72116;BME280;59991;52.140;5.428;2023-04-20T01:26:14;102304.84;;;6.03;56.23
72116;BME280;59991;52.140;5.428;2023-04-20T01:26:46;102304.03;;;6.03;56.10
72116;BME280;59991;52.140;5.428;2023-04-20T01:27:18;102301.63;;;6.01;55.93
72116;BME280;59991;52.140;5.428;2023-04-20T01:27:49;102300.53;;;6.02;56.19
72116;BME280;59991;52.140;5.428;2023-04-20T01:28:20;102295.09;;;6.02;56.65
72116;BME280;59991;52.140;5.428;2023-04-20T01:28:53;102296.22;;;6.01;56.34
72116;BME280;59991;52.140;5.428;2023-04-20T01:29:24;102298.44;;;5.99;56.23
72116;BME280;59991;52.140;5.428;2023-04-20T01:29:56;102294.63;;;6.00;56.24
72116;BME280;59991;52.140;5.428;2023-04-20T01:30:28;102298.13;;;6.01;56.47
72116;BME280;59991;52.140;5.428;2023-04-20T01:30:59;102295.72;;;5.99;56.40
72116;BME280;59991;52.140;5.428;2023-04-20T01:31:31;102291.41;;;5.98;56.53
72116;BME280;59991;52.140;5.428;2023-04-20T01:32:03;102295.22;;;5.97;56.79
72116;BME280;59991;52.140;5.428;2023-04-20T01:32:35;102289.03;;;5.97;56.66
72116;BME280;59991;52.140;5.428;2023-04-20T01:33:07;102290.16;;;5.96;56.84
72116;BME280;59991;52.140;5.428;2023-04-20T01:33:39;102289.03;;;5.97;56.67
72116;BME280;59991;52.140;5.428;2023-04-20T01:34:10;102285.19;;;5.98;57.00
72116;BME280;59991;52.140;5.428;2023-04-20T01:34:42;102286.31;;;5.97;56.93
72116;BME280;59991;52.140;5.428;2023-04-20T01:35:14;102289.03;;;5.97;56.95
72116;BME280;59991;52.140;5.428;2023-04-20T01:35:46;102285.53;;;5.96;56.78
72116;BME280;59991;52.140;5.428;2023-04-20T01:36:18;102289.81;;;5.97;56.79
72116;BME280;59991;52.140;5.428;2023-04-20T01:36:50;102283.59;;;5.97;56.77
72116;BME280;59991;52.140;5.428;2023-04-20T01:37:21;102282.84;;;5.96;56.92
72116;BME280;59991;52.140;5.428;2023-04-20T01:37:53;102286.66;;;5.95;56.92
72116;BME280;59991;52.140;5.428;2023-04-20T01:38:25;102290.16;;;5.96;57.19
72116;BME280;59991;52.140;5.428;2023-04-20T01:38:56;102281.22;;;5.95;56.86
72116;BME280;59991;52.140;5.428;2023-04-20T01:39:28;102282.03;;;5.96;57.03
72116;BME280;59991;52.140;5.428;2023-04-20T01:40:01;102279.00;;;5.97;57.15
72116;BME280;59991;52.140;5.428;2023-04-20T01:40:34;102283.59;;;5.97;56.91
72116;BME280;59991;52.140;5.428;2023-04-20T01:41:07;102274.72;;;5.96;57.28
72116;BME280;59991;52.140;5.428;2023-04-20T01:41:39;102277.41;;;5.96;57.25
72116;BME280;59991;52.140;5.428;2023-04-20T01:42:11;102280.75;;;5.93;57.31
72116;BME280;59991;52.140;5.428;2023-04-20T01:42:42;102279.94;;;5.93;57.36
72116;BME280;59991;52.140;5.428;2023-04-20T01:43:14;102278.34;;;5.92;57.57
72116;BME280;59991;52.140;5.428;2023-04-20T01:43:46;102285.66;;;5.91;57.59
72116;BME280;59991;52.140;5.428;2023-04-20T01:44:17;102271.03;;;5.92;57.61
72116;BME280;59991;52.140;5.428;2023-04-20T01:44:49;102272.94;;;5.92;57.88
72116;BME280;59991;52.140;5.428;2023-04-20T01:45:20;102275.63;;;5.92;57.87
72116;BME280;59991;52.140;5.428;2023-04-20T01:45:52;102281.06;;;5.92;57.47
72116;BME280;59991;52.140;5.428;2023-04-20T01:46:24;102281.06;;;5.92;57.78
72116;BME280;59991;52.140;5.428;2023-04-20T01:46:55;102274.53;;;5.93;57.71
72116;BME280;59991;52.140;5.428;2023-04-20T01:47:30;102282.97;;;5.91;58.11
72116;BME280;59991;52.140;5.428;2023-04-20T01:48:02;102278.34;;;5.92;58.31
72116;BME280;59991;52.140;5.428;2023-04-20T01:48:33;102274.03;;;5.91;58.26
72116;BME280;59991;52.140;5.428;2023-04-20T01:49:05;102274.34;;;5.89;58.32
72116;BME280;59991;52.140;5.428;2023-04-20T01:49:36;102272.44;;;5.89;58.34
72116;BME280;59991;52.140;5.428;2023-04-20T01:50:08;102273.22;;;5.90;58.28
72116;BME280;59991;52.140;5.428;2023-04-20T01:50:40;102268.94;;;5.89;58.23
72116;BME280;59991;52.140;5.428;2023-04-20T01:51:11;102277.84;;;5.89;58.34
72116;BME280;59991;52.140;5.428;2023-04-20T01:51:43;102273.22;;;5.90;58.75
72116;BME280;59991;52.140;5.428;2023-04-20T01:52:14;102264.59;;;5.88;58.64
72116;BME280;59991;52.140;5.428;2023-04-20T01:52:46;102273.03;;;5.86;58.79
72116;BME280;59991;52.140;5.428;2023-04-20T01:53:17;102268.41;;;5.87;58.52
72116;BME280;59991;52.140;5.428;2023-04-20T01:53:49;102262.19;;;5.86;58.76
72116;BME280;59991;52.140;5.428;2023-04-20T01:54:20;102261.41;;;5.86;58.70
72116;BME280;59991;52.140;5.428;2023-04-20T01:54:52;102265.41;;;5.88;58.52
72116;BME280;59991;52.140;5.428;2023-04-20T01:55:41;102268.94;;;5.89;58.66
72116;BME280;59991;52.140;5.428;2023-04-20T01:56:13;102268.94;;;5.89;58.73
72116;BME280;59991;52.140;5.428;2023-04-20T01:56:44;102272.44;;;5.89;58.81
72116;BME280;59991;52.140;5.428;2023-04-20T01:57:16;102268.94;;;5.89;59.41
72116;BME280;59991;52.140;5.428;2023-04-20T01:57:47;102270.84;;;5.88;58.87
72116;BME280;59991;52.140;5.428;2023-04-20T01:58:19;102270.00;;;5.88;59.24
72116;BME280;59991;52.140;5.428;2023-04-20T01:58:50;102270.84;;;5.88;59.49
72116;BME280;59991;52.140;5.428;2023-04-20T01:59:22;102264.59;;;5.88;59.36
72116;BME280;59991;52.140;5.428;2023-04-20T01:59:53;102265.41;;;5.88;59.16
72116;BME280;59991;52.140;5.428;2023-04-20T02:00:25;102268.41;;;5.87;59.57
72116;BME280;59991;52.140;5.428;2023-04-20T02:00:56;102263.00;;;5.87;59.58
72116;BME280;59991;52.140;5.428;2023-04-20T02:01:27;102259.19;;;5.88;59.83
72116;BME280;59991;52.140;5.428;2023-04-20T02:01:59;102261.88;;;5.88;59.66
72116;BME280;59991;52.140;5.428;2023-04-20T02:02:31;102262.72;;;5.88;59.72
72116;BME280;59991;52.140;5.428;2023-04-20T02:03:02;102260.81;;;5.89;60.23
72116;BME280;59991;52.140;5.428;2023-04-20T02:03:34;102263.50;;;5.89;60.14
72116;BME280;59991;52.140;5.428;2023-04-20T02:04:06;102260.81;;;5.89;60.38
72116;BME280;59991;52.140;5.428;2023-04-20T02:04:37;102267.81;;;5.90;60.18
72116;BME280;59991;52.140;5.428;2023-04-20T02:05:09;102267.50;;;5.92;60.37
72116;BME280;59991;52.140;5.428;2023-04-20T02:05:40;102261.00;;;5.93;60.46
72116;BME280;59991;52.140;5.428;2023-04-20T02:06:12;102261.78;;;5.93;60.49
72116;BME280;59991;52.140;5.428;2023-04-20T02:06:43;102250.97;;;5.93;60.98
72116;BME280;59991;52.140;5.428;2023-04-20T02:07:15;102257.97;;;5.94;60.54
72116;BME280;59991;52.140;5.428;2023-04-20T02:07:46;102260.69;;;5.94;60.56
72116;BME280;59991;52.140;5.428;2023-04-20T02:08:19;102247.63;;;5.96;60.63
72116;BME280;59991;52.140;5.428;2023-04-20T02:08:50;102251.91;;;5.97;61.08
72116;BME280;59991;52.140;5.428;2023-04-20T02:09:22;102251.59;;;5.99;61.08
72116;BME280;59991;52.140;5.428;2023-04-20T02:09:53;102252.72;;;5.98;61.19
72116;BME280;59991;52.140;5.428;2023-04-20T02:10:25;102248.91;;;5.99;61.23
72116;BME280;59991;52.140;5.428;2023-04-20T02:10:56;102244.28;;;5.99;61.05
72116;BME280;59991;52.140;5.428;2023-04-20T02:11:28;102247.78;;;6.00;61.73
72116;BME280;59991;52.140;5.428;2023-04-20T02:11:59;102241.25;;;6.01;61.76
72116;BME280;59991;52.140;5.428;2023-04-20T02:12:31;102257.50;;;6.01;61.96
72116;BME280;59991;52.140;5.428;2023-04-20T02:13:03;102245.88;;;6.00;61.97
72116;BME280;59991;52.140;5.428;2023-04-20T02:13:34;102251.78;;;6.02;62.03
72116;BME280;59991;52.140;5.428;2023-04-20T02:14:06;102254.19;;;6.04;62.41
72116;BME280;59991;52.140;5.428;2023-04-20T02:14:38;102248.78;;;6.04;62.75
72116;BME280;59991;52.140;5.428;2023-04-20T02:15:09;102248.47;;;6.05;62.58
72116;BME280;59991;52.140;5.428;2023-04-20T02:15:41;102246.25;;;6.07;62.32
72116;BME280;59991;52.140;5.428;2023-04-20T02:16:12;102244.03;;;6.09;62.55
72116;BME280;59991;52.140;5.428;2023-04-20T02:16:44;102244.81;;;6.10;62.69
72116;BME280;59991;52.140;5.428;2023-04-20T02:17:15;102246.41;;;6.11;62.80
72116;BME280;59991;52.140;5.428;2023-04-20T02:17:47;102239.91;;;6.12;62.67
72116;BME280;59991;52.140;5.428;2023-04-20T02:18:22;102238.00;;;6.12;62.63
72116;BME280;59991;52.140;5.428;2023-04-20T02:18:55;102234.16;;;6.13;62.80
72116;BME280;59991;52.140;5.428;2023-04-20T02:19:26;102235.78;;;6.14;62.52
72116;BME280;59991;52.140;5.428;2023-04-20T02:19:58;102236.22;;;6.16;62.65
72116;BME280;59991;52.140;5.428;2023-04-20T02:20:29;102228.91;;;6.17;62.60
72116;BME280;59991;52.140;5.428;2023-04-20T02:21:01;102232.91;;;6.19;62.79
72116;BME280;59991;52.140;5.428;2023-04-20T02:21:33;102229.06;;;6.20;62.49
72116;BME280;59991;52.140;5.428;2023-04-20T02:22:05;102233.06;;;6.23;62.83
72116;BME280;59991;52.140;5.428;2023-04-20T02:22:37;102226.06;;;6.22;62.77
72116;BME280;59991;52.140;5.428;2023-04-20T02:23:08;102230.06;;;6.24;62.82
72116;BME280;59991;52.140;5.428;2023-04-20T02:23:40;102230.06;;;6.24;63.17
72116;BME280;59991;52.140;5.428;2023-04-20T02:24:11;102230.53;;;6.27;63.21
72116;BME280;59991;52.140;5.428;2023-04-20T02:24:43;102228.63;;;6.27;63.06
72116;BME280;59991;52.140;5.428;2023-04-20T02:25:14;102225.63;;;6.29;62.80
72116;BME280;59991;52.140;5.428;2023-04-20T02:25:46;102225.31;;;6.30;63.22
72116;BME280;59991;52.140;5.428;2023-04-20T02:26:17;102230.41;;;6.32;63.07
72116;BME280;59991;52.140;5.428;2023-04-20T02:26:48;102223.41;;;6.31;62.92
72116;BME280;59991;52.140;5.428;2023-04-20T02:27:20;102225.47;;;6.34;63.19
72116;BME280;59991;52.140;5.428;2023-04-20T02:27:51;102223.56;;;6.34;63.19
72116;BME280;59991;52.140;5.428;2023-04-20T02:28:23;102221.66;;;6.35;63.31
72116;BME280;59991;52.140;5.428;2023-04-20T02:28:54;102228.63;;;6.36;63.42
72116;BME280;59991;52.140;5.428;2023-04-20T02:29:26;102220.50;;;6.36;63.51
72116;BME280;59991;52.140;5.428;2023-04-20T02:29:58;102218.94;;;6.35;63.60
72116;BME280;59991;52.140;5.428;2023-04-20T02:30:30;102215.91;;;6.36;63.37
72116;BME280;59991;52.140;5.428;2023-04-20T02:31:01;102218.59;;;6.36;63.39
72116;BME280;59991;52.140;5.428;2023-04-20T02:31:33;102213.19;;;6.36;63.67
72116;BME280;59991;52.140;5.428;2023-04-20T02:32:05;102225.63;;;6.37;63.90
72116;BME280;59991;52.140;5.428;2023-04-20T02:32:38;102215.59;;;6.38;63.85
72116;BME280;59991;52.140;5.428;2023-04-20T02:33:09;102212.06;;;6.37;63.96
72116;BME280;59991;52.140;5.428;2023-04-20T02:33:41;102206.97;;;6.36;63.51
72116;BME280;59991;52.140;5.428;2023-04-20T02:34:12;102207.75;;;6.36;63.67
72116;BME280;59991;52.140;5.428;2023-04-20T02:34:44;102212.88;;;6.38;63.72
72116;BME280;59991;52.140;5.428;2023-04-20T02:35:15;102208.25;;;6.38;63.84
72116;BME280;59991;52.140;5.428;2023-04-20T02:35:47;102212.88;;;6.38;63.80
72116;BME280;59991;52.140;5.428;2023-04-20T02:36:19;102206.34;;;6.39;63.74
72116;BME280;59991;52.140;5.428;2023-04-20T02:36:50;102207.16;;;6.39;63.46
72116;BME280;59991;52.140;5.428;2023-04-20T02:37:22;102203.63;;;6.39;63.96
72116;BME280;59991;52.140;5.428;2023-04-20T02:37:53;102209.06;;;6.39;63.74
72116;BME280;59991;52.140;5.428;2023-04-20T02:38:25;102203.63;;;6.39;63.84
72116;BME280;59991;52.140;5.428;2023-04-20T02:38:57;102202.84;;;6.38;64.05
72116;BME280;59991;52.140;5.428;2023-04-20T02:39:28;102202.84;;;6.38;63.83
72116;BME280;59991;52.140;5.428;2023-04-20T02:40:00;102199.00;;;6.39;63.92
72116;BME280;59991;52.140;5.428;2023-04-20T02:40:31;102192.78;;;6.39;64.00
72116;BME280;59991;52.140;5.428;2023-04-20T02:41:03;102194.41;;;6.40;64.03
72116;BME280;59991;52.140;5.428;2023-04-20T02:41:34;102194.41;;;6.40;63.73
72116;BME280;59991;52.140;5.428;2023-04-20T02:42:06;102196.00;;;6.41;63.82
72116;BME280;59991;52.140;5.428;2023-04-20T02:42:37;102194.41;;;6.40;63.82
72116;BME280;59991;52.140;5.428;2023-04-20T02:43:09;102199.50;;;6.41;64.28
72116;BME280;59991;52.140;5.428;2023-04-20T02:43:40;102201.41;;;6.41;64.15
72116;BME280;59991;52.140;5.428;2023-04-20T02:44:12;102194.09;;;6.41;64.00
72116;BME280;59991;52.140;5.428;2023-04-20T02:44:43;102195.69;;;6.42;64.44
72116;BME280;59991;52.140;5.428;2023-04-20T02:45:14;102189.47;;;6.42;63.98
72116;BME280;59991;52.140;5.428;2023-04-20T02:45:46;102191.06;;;6.43;64.19
72116;BME280;59991;52.140;5.428;2023-04-20T02:46:19;102189.47;;;6.42;64.41
72116;BME280;59991;52.140;5.428;2023-04-20T02:46:51;102185.63;;;6.43;64.25
72116;BME280;59991;52.140;5.428;2023-04-20T02:47:23;102188.34;;;6.43;64.49
72116;BME280;59991;52.140;5.428;2023-04-20T02:47:54;102188.34;;;6.43;64.57
72116;BME280;59991;52.140;5.428;2023-04-20T02:48:26;102185.31;;;6.44;64.17
72116;BME280;59991;52.140;5.428;2023-04-20T02:48:57;102182.63;;;6.44;64.27